Time;durP1;ratioP1;P1;durP2;ratioP2;P2;SDS_P1;SDS_P2;PMS_P1;PMS_P2;Temp;Humidity;BMP_temperature;BMP_pressure;BME280_temperature;BME280_humidity;BME280_pressure;Samples;Min_cycle;Max_cycle;Signal;HPM_P1;HPM_P2
2023/09/14 00:01:26;;;;;;;2.67;1.60;;;;;;;;;;4956854;28;20241;-80
2023/09/14 00:03:52;;;;;;;3.03;1.90;;;;;;;;;;4964182;28;20189;-80
2023/09/14 00:06:18;;;;;;;2.43;1.70;;;;;;;;;;4976503;28;20218;-81
2023/09/14 00:08:45;;;;;;;1.80;1.60;;;;;;;;;;4961892;29;20508;-80
2023/09/14 00:11:12;;;;;;;2.80;1.80;;;;;;;;;;4968358;28;20235;-81
2023/09/14 00:13:38;;;;;;;1.90;1.60;;;;;;;;;;4970748;28;20253;-82
2023/09/14 00:16:04;;;;;;;2.77;1.87;;;;;;;;;;4966260;28;20201;-81
2023/09/14 00:18:30;;;;;;;3.07;1.80;;;;;;;;;;4970511;28;20204;-81
2023/09/14 00:20:57;;;;;;;2.70;1.53;;;;;;;;;;4937000;29;20273;-81
2023/09/14 00:23:23;;;;;;;2.73;1.53;;;;;;;;;;4982736;28;20191;-81
2023/09/14 00:25:50;;;;;;;4.07;1.57;;;;;;;;;;4968466;28;20212;-80
2023/09/14 00:28:17;;;;;;;3.23;1.70;;;;;;;;;;4974301;28;20424;-81
2023/09/14 00:30:43;;;;;;;4.77;2.03;;;;;;;;;;4969685;28;20276;-81
2023/09/14 00:33:09;;;;;;;2.83;1.87;;;;;;;;;;4960661;28;20209;-82
2023/09/14 00:35:35;;;;;;;2.67;1.90;;;;;;;;;;4973024;29;20189;-81
2023/09/14 00:38:02;;;;;;;2.37;1.67;;;;;;;;;;4974404;28;20232;-81
2023/09/14 00:40:28;;;;;;;4.33;1.60;;;;;;;;;;4971791;28;20236;-80
2023/09/14 00:42:55;;;;;;;2.80;1.63;;;;;;;;;;4964297;28;20212;-80
2023/09/14 00:45:21;;;;;;;2.63;1.43;;;;;;;;;;4974903;28;20267;-81
2023/09/14 00:47:49;;;;;;;2.57;1.63;;;;;;;;;;4974268;28;20220;-80
2023/09/14 00:50:16;;;;;;;1.80;1.70;;;;;;;;;;4969190;28;20186;-81
2023/09/14 00:52:44;;;;;;;1.77;1.67;;;;;;;;;;4968943;28;20258;-81
2023/09/14 00:55:11;;;;;;;2.47;1.73;;;;;;;;;;4957189;28;20494;-82
2023/09/14 00:57:38;;;;;;;3.73;1.90;;;;;;;;;;4970436;28;20233;-80
2023/09/14 01:00:11;;;;;;;3.77;1.87;;;;;;;;;;4971225;28;20241;-81
2023/09/14 01:02:40;;;;;;;3.63;1.80;;;;;;;;;;4957760;28;20212;-81
2023/09/14 01:05:07;;;;;;;3.10;1.77;;;;;;;;;;4970700;28;20189;-81
2023/09/14 01:07:34;;;;;;;2.20;1.70;;;;;;;;;;4955253;28;20213;-81
2023/09/14 01:10:00;;;;;;;2.17;1.70;;;;;;;;;;4959458;28;20204;-79
2023/09/14 01:12:26;;;;;;;2.47;1.70;;;;;;;;;;4948899;28;20750;-80
2023/09/14 01:15:16;;;;;;;3.30;1.67;;;;;;;;;;4953639;28;20355;-80
2023/09/14 01:17:58;;;;;;;2.60;1.87;;;;;;;;;;4950013;28;20248;-80
2023/09/14 01:20:39;;;;;;;2.73;2.10;;;;;;;;;;4953192;28;20248;-81
2023/09/14 01:23:23;;;;;;;4.70;2.07;;;;;;;;;;4958240;28;20198;-80
2023/09/14 01:25:52;;;;;;;2.87;1.97;;;;;;;;;;4955148;28;20217;-80
2023/09/14 01:28:18;;;;;;;4.33;2.43;;;;;;;;;;4966828;28;20189;-81
2023/09/14 01:30:44;;;;;;;3.47;2.33;;;;;;;;;;4947956;29;20197;-81
2023/09/14 01:33:14;;;;;;;2.73;1.90;;;;;;;;;;4960181;28;20224;-82
2023/09/14 01:36:00;;;;;;;2.90;2.27;;;;;;;;;;4955070;28;20274;-81
2023/09/14 01:38:27;;;;;;;2.40;2.00;;;;;;;;;;4965565;29;20191;-80
2023/09/14 01:40:54;;;;;;;3.20;2.30;;;;;;;;;;4958473;28;20240;-80
2023/09/14 01:43:20;;;;;;;3.93;2.53;;;;;;;;;;4952781;29;20193;-81
2023/09/14 01:45:46;;;;;;;3.37;2.40;;;;;;;;;;4950204;29;20484;-81
2023/09/14 01:48:16;;;;;;;5.23;2.30;;;;;;;;;;4970487;28;20209;-80
2023/09/14 01:50:43;;;;;;;4.27;2.47;;;;;;;;;;4967839;28;20225;-81
2023/09/14 01:53:10;;;;;;;3.93;2.50;;;;;;;;;;4964219;28;20229;-82
2023/09/14 01:55:36;;;;;;;2.70;1.97;;;;;;;;;;4961536;28;20205;-81
2023/09/14 01:58:02;;;;;;;3.50;2.43;;;;;;;;;;4966057;28;20221;-81
2023/09/14 02:00:28;;;;;;;2.83;2.10;;;;;;;;;;4968436;28;20205;-81
2023/09/14 02:02:54;;;;;;;2.67;2.13;;;;;;;;;;4972310;28;20182;-81
2023/09/14 02:05:20;;;;;;;3.17;2.30;;;;;;;;;;4963799;28;20181;-81
2023/09/14 02:07:47;;;;;;;3.67;2.53;;;;;;;;;;4956758;29;20236;-81
2023/09/14 02:10:13;;;;;;;3.33;2.30;;;;;;;;;;4967387;28;20820;-82
2023/09/14 02:12:39;;;;;;;3.00;2.20;;;;;;;;;;4961172;28;20215;-81
2023/09/14 02:15:08;;;;;;;3.53;2.33;;;;;;;;;;4973769;28;20189;-80
2023/09/14 02:17:37;;;;;;;2.97;2.30;;;;;;;;;;4972492;28;20221;-80
2023/09/14 02:20:08;;;;;;;4.97;2.83;;;;;;;;;;4972814;28;20221;-81
2023/09/14 02:22:34;;;;;;;3.67;2.50;;;;;;;;;;4956833;29;20205;-80
2023/09/14 02:25:01;;;;;;;4.23;2.53;;;;;;;;;;4971191;28;20193;-81
2023/09/14 02:27:28;;;;;;;3.80;2.20;;;;;;;;;;4954926;28;20727;-80
2023/09/14 02:29:56;;;;;;;6.10;2.73;;;;;;;;;;4964195;28;20188;-81
2023/09/14 02:32:24;;;;;;;3.43;2.23;;;;;;;;;;4955234;28;20174;-82
2023/09/14 02:34:50;;;;;;;3.20;2.37;;;;;;;;;;4971395;29;20207;-80
2023/09/14 02:37:17;;;;;;;4.07;2.50;;;;;;;;;;4965084;28;20209;-81
2023/09/14 02:39:43;;;;;;;2.30;2.00;;;;;;;;;;4969758;28;20717;-81
2023/09/14 02:42:09;;;;;;;2.73;2.20;;;;;;;;;;4967557;28;20185;-81
2023/09/14 02:44:39;;;;;;;4.30;2.50;;;;;;;;;;4966280;28;20223;-80
2023/09/14 02:47:05;;;;;;;3.30;2.33;;;;;;;;;;4966525;28;20199;-81
2023/09/14 02:49:31;;;;;;;3.43;2.50;;;;;;;;;;4962280;29;20254;-81
2023/09/14 02:51:58;;;;;;;3.93;2.60;;;;;;;;;;4966470;28;20279;-81
2023/09/14 02:54:24;;;;;;;3.77;2.50;;;;;;;;;;4969644;28;20229;-80
2023/09/14 02:56:51;;;;;;;4.13;2.57;;;;;;;;;;4952435;29;20209;-81
2023/09/14 02:59:19;;;;;;;3.20;2.53;;;;;;;;;;4957179;28;20247;-80
2023/09/14 03:01:45;;;;;;;2.83;2.40;;;;;;;;;;4963485;28;20218;-81
2023/09/14 03:04:14;;;;;;;3.93;2.43;;;;;;;;;;4971660;28;20198;-81
2023/09/14 03:06:40;;;;;;;4.80;2.70;;;;;;;;;;4967727;28;20244;-80
2023/09/14 03:09:06;;;;;;;5.37;2.50;;;;;;;;;;4955026;28;20189;-81
2023/09/14 03:11:33;;;;;;;3.57;2.50;;;;;;;;;;4956223;28;20188;-80
2023/09/14 03:13:59;;;;;;;4.10;2.67;;;;;;;;;;4972966;28;20193;-81
2023/09/14 03:16:25;;;;;;;3.83;2.60;;;;;;;;;;4985509;28;20240;-81
2023/09/14 03:18:52;;;;;;;3.03;2.30;;;;;;;;;;4954411;29;20193;-81
2023/09/14 03:21:25;;;;;;;4.13;2.50;;;;;;;;;;4967109;28;20217;-81
2023/09/14 03:23:51;;;;;;;5.13;2.40;;;;;;;;;;4955113;29;20194;-81
2023/09/14 03:26:18;;;;;;;4.40;2.70;;;;;;;;;;4966522;28;20274;-81
2023/09/14 03:28:44;;;;;;;3.80;2.70;;;;;;;;;;4953842;29;20222;-81
2023/09/14 03:31:10;;;;;;;3.53;2.70;;;;;;;;;;4970295;28;20196;-81
2023/09/14 03:33:37;;;;;;;3.03;2.57;;;;;;;;;;4968037;28;20196;-80
2023/09/14 03:36:03;;;;;;;3.87;2.30;;;;;;;;;;4970406;28;20240;-81
2023/09/14 03:38:30;;;;;;;3.00;2.50;;;;;;;;;;4954687;28;20186;-80
2023/09/14 03:40:56;;;;;;;3.10;2.43;;;;;;;;;;4968793;28;20276;-81
2023/09/14 03:43:22;;;;;;;3.70;2.50;;;;;;;;;;4967403;28;20200;-81
2023/09/14 03:45:48;;;;;;;3.30;2.43;;;;;;;;;;4966222;28;20189;-81
2023/09/14 03:48:14;;;;;;;4.23;2.63;;;;;;;;;;4965219;28;20201;-81
2023/09/14 03:50:40;;;;;;;3.20;2.50;;;;;;;;;;4970263;28;20194;-80
2023/09/14 03:53:08;;;;;;;3.97;2.67;;;;;;;;;;4963324;28;20217;-80
2023/09/14 03:55:34;;;;;;;3.77;2.30;;;;;;;;;;4964274;28;20194;-81
2023/09/14 03:58:00;;;;;;;4.07;2.67;;;;;;;;;;4952011;29;20250;-80
2023/09/14 04:00:26;;;;;;;4.37;2.43;;;;;;;;;;4965986;28;20251;-80
2023/09/14 04:02:54;;;;;;;4.77;2.40;;;;;;;;;;4967912;28;20231;-80
2023/09/14 04:05:20;;;;;;;5.50;2.63;;;;;;;;;;4970145;28;20200;-81
2023/09/14 04:07:47;;;;;;;4.13;2.80;;;;;;;;;;4949082;29;20497;-80
2023/09/14 04:10:13;;;;;;;3.77;2.70;;;;;;;;;;4962955;28;20266;-80
2023/09/14 04:12:41;;;;;;;4.20;2.73;;;;;;;;;;4965235;28;20208;-81
2023/09/14 04:15:07;;;;;;;5.03;2.93;;;;;;;;;;4951955;29;20197;-81
2023/09/14 04:17:33;;;;;;;3.33;2.70;;;;;;;;;;4965882;28;20386;-80
2023/09/14 04:20:00;;;;;;;2.97;2.67;;;;;;;;;;4946481;28;20194;-82
2023/09/14 04:22:26;;;;;;;3.07;2.43;;;;;;;;;;4965971;28;20198;-80
2023/09/14 04:24:53;;;;;;;3.13;2.50;;;;;;;;;;4963957;28;20194;-80
2023/09/14 04:27:19;;;;;;;3.40;2.30;;;;;;;;;;4950611;28;20261;-80
2023/09/14 04:29:45;;;;;;;3.67;2.60;;;;;;;;;;4945888;29;20237;-80
2023/09/14 04:32:11;;;;;;;4.27;2.93;;;;;;;;;;4965530;28;20205;-80
2023/09/14 04:34:37;;;;;;;5.87;3.13;;;;;;;;;;4949048;28;20197;-80
2023/09/14 04:37:04;;;;;;;4.47;2.80;;;;;;;;;;4970545;28;20264;-81
2023/09/14 04:39:31;;;;;;;4.37;3.00;;;;;;;;;;4970830;28;20201;-81
2023/09/14 04:41:57;;;;;;;4.37;3.07;;;;;;;;;;4964456;28;20590;-80
2023/09/14 04:44:23;;;;;;;3.67;2.80;;;;;;;;;;4967112;28;20184;-80
2023/09/14 04:46:49;;;;;;;4.23;2.90;;;;;;;;;;4948768;29;20230;-80
2023/09/14 04:49:15;;;;;;;5.97;3.03;;;;;;;;;;4966319;28;20190;-80
2023/09/14 04:51:41;;;;;;;3.97;2.70;;;;;;;;;;4966921;28;20194;-80
2023/09/14 04:54:08;;;;;;;3.77;2.90;;;;;;;;;;4966413;28;20241;-80
2023/09/14 04:56:34;;;;;;;3.67;2.70;;;;;;;;;;4953558;29;20309;-80
2023/09/14 04:59:02;;;;;;;5.93;2.80;;;;;;;;;;4955032;28;20197;-80
2023/09/14 05:01:28;;;;;;;3.73;2.80;;;;;;;;;;4974347;28;20315;-81
2023/09/14 05:03:54;;;;;;;3.07;2.47;;;;;;;;;;4954416;29;20186;-80
2023/09/14 05:06:20;;;;;;;4.30;3.03;;;;;;;;;;4970978;28;20231;-80
2023/09/14 05:08:47;;;;;;;3.33;2.67;;;;;;;;;;4971368;28;20190;-80
2023/09/14 05:11:13;;;;;;;3.80;2.80;;;;;;;;;;4964704;28;20205;-80
2023/09/14 05:13:39;;;;;;;3.47;2.77;;;;;;;;;;4952062;29;20189;-80
2023/09/14 05:16:06;;;;;;;4.60;2.80;;;;;;;;;;4967498;28;20264;-81
2023/09/14 05:18:33;;;;;;;3.93;2.93;;;;;;;;;;4961557;28;20184;-80
2023/09/14 05:20:59;;;;;;;4.57;3.10;;;;;;;;;;4949673;29;20225;-80
2023/09/14 05:23:26;;;;;;;5.50;2.90;;;;;;;;;;4973768;28;20219;-81
2023/09/14 05:25:52;;;;;;;4.00;3.10;;;;;;;;;;4962341;28;20190;-80
2023/09/14 05:28:18;;;;;;;4.30;3.00;;;;;;;;;;4968552;28;20217;-80
2023/09/14 05:30:44;;;;;;;4.20;2.83;;;;;;;;;;4966222;28;20201;-80
2023/09/14 05:33:11;;;;;;;4.37;3.00;;;;;;;;;;4966813;28;20641;-81
2023/09/14 05:35:37;;;;;;;3.33;2.70;;;;;;;;;;4971482;28;20185;-81
2023/09/14 05:38:04;;;;;;;4.57;3.10;;;;;;;;;;4950916;28;20260;-81
2023/09/14 05:40:32;;;;;;;5.53;3.13;;;;;;;;;;4956045;28;20247;-80
2023/09/14 05:42:59;;;;;;;6.27;3.40;;;;;;;;;;4952579;28;20177;-79
2023/09/14 05:45:26;;;;;;;7.23;3.63;;;;;;;;;;4940057;28;20247;-90
2023/09/14 05:47:52;;;;;;;8.30;3.30;;;;;;;;;;4943942;28;20212;-80
2023/09/14 05:50:18;;;;;;;7.93;3.50;;;;;;;;;;4956910;28;20276;-82
2023/09/14 05:52:44;;;;;;;7.10;3.23;;;;;;;;;;4943334;28;20576;-83
2023/09/14 05:55:10;;;;;;;6.20;3.20;;;;;;;;;;4941142;29;20329;-81
2023/09/14 05:57:36;;;;;;;5.30;3.00;;;;;;;;;;4941200;29;20843;-80
2023/09/14 06:00:13;;;;;;;6.77;2.80;;;;;;;;;;4952890;28;20196;-81
2023/09/14 06:02:42;;;;;;;6.07;2.70;;;;;;;;;;4952730;28;20207;-76
2023/09/14 06:05:11;;;;;;;4.53;3.00;;;;;;;;;;4950426;28;20192;-76
2023/09/14 06:07:38;;;;;;;7.17;2.87;;;;;;;;;;4951401;28;20604;-77
2023/09/14 06:10:05;;;;;;;4.70;3.37;;;;;;;;;;4951437;28;20253;-77
2023/09/14 06:12:32;;;;;;;5.53;3.27;;;;;;;;;;4950148;29;20189;-77
2023/09/14 06:14:58;;;;;;;6.77;3.53;;;;;;;;;;4949216;28;20241;-77
2023/09/14 06:17:24;;;;;;;5.83;3.40;;;;;;;;;;4952407;28;20291;-77
2023/09/14 06:19:51;;;;;;;10.67;3.03;;;;;;;;;;4948325;28;20182;-79
2023/09/14 06:22:17;;;;;;;5.87;3.23;;;;;;;;;;4955162;28;20174;-77
2023/09/14 06:24:43;;;;;;;6.37;3.17;;;;;;;;;;4955149;28;20267;-77
2023/09/14 06:27:09;;;;;;;6.43;3.00;;;;;;;;;;4955559;28;20556;-77
2023/09/14 06:29:36;;;;;;;7.87;3.20;;;;;;;;;;4959760;28;20238;-77
2023/09/14 06:32:03;;;;;;;5.70;3.20;;;;;;;;;;4951632;28;20267;-77
2023/09/14 06:34:29;;;;;;;5.60;2.90;;;;;;;;;;4956228;28;20556;-80
2023/09/14 06:36:55;;;;;;;7.30;3.33;;;;;;;;;;4955909;28;20220;-78
2023/09/14 06:39:21;;;;;;;6.73;3.23;;;;;;;;;;4957261;28;20201;-77
2023/09/14 06:41:48;;;;;;;7.90;3.13;;;;;;;;;;4956355;28;20348;-77
2023/09/14 06:44:18;;;;;;;7.10;3.67;;;;;;;;;;4963265;28;20205;-79
2023/09/14 06:46:46;;;;;;;8.30;3.23;;;;;;;;;;4961461;28;20229;-79
2023/09/14 06:49:12;;;;;;;7.13;3.47;;;;;;;;;;4956123;28;20721;-79
2023/09/14 06:51:39;;;;;;;7.97;3.73;;;;;;;;;;4947764;28;20558;-78
2023/09/14 06:54:05;;;;;;;6.13;3.30;;;;;;;;;;4964286;28;20590;-79
2023/09/14 06:56:31;;;;;;;5.03;3.20;;;;;;;;;;4958851;28;20208;-79
2023/09/14 06:58:58;;;;;;;8.17;3.13;;;;;;;;;;4978852;28;20261;-79
2023/09/14 07:01:24;;;;;;;8.00;3.33;;;;;;;;;;4963093;28;20207;-78
2023/09/14 07:03:53;;;;;;;4.03;3.10;;;;;;;;;;4959439;28;20181;-80
2023/09/14 07:06:19;;;;;;;3.90;2.80;;;;;;;;;;4957810;28;20631;-79
2023/09/14 07:08:45;;;;;;;5.63;3.10;;;;;;;;;;4962427;28;20676;-79
2023/09/14 07:11:12;;;;;;;6.17;3.67;;;;;;;;;;4943598;28;20190;-79
2023/09/14 07:13:38;;;;;;;5.17;3.50;;;;;;;;;;4961181;28;20491;-78
2023/09/14 07:16:04;;;;;;;6.10;3.67;;;;;;;;;;4955342;28;20197;-79
2023/09/14 07:18:31;;;;;;;7.40;2.90;;;;;;;;;;4955491;28;20196;-79
2023/09/14 07:20:58;;;;;;;5.27;3.00;;;;;;;;;;4955714;28;20217;-79
2023/09/14 07:23:27;;;;;;;7.70;3.90;;;;;;;;;;4958689;28;20557;-79
2023/09/14 07:25:53;;;;;;;5.23;3.43;;;;;;;;;;4959803;28;20272;-79
2023/09/14 07:28:21;;;;;;;7.60;3.20;;;;;;;;;;4953363;28;20697;-79
2023/09/14 07:30:47;;;;;;;6.30;2.80;;;;;;;;;;4956524;28;20211;-79
2023/09/14 07:33:14;;;;;;;4.97;3.00;;;;;;;;;;4963529;28;20189;-79
2023/09/14 07:35:40;;;;;;;5.47;2.97;;;;;;;;;;4951033;28;20671;-79
2023/09/14 07:38:10;;;;;;;4.90;3.10;;;;;;;;;;4956064;28;20216;-79
2023/09/14 07:40:37;;;;;;;6.20;3.30;;;;;;;;;;4976470;28;20223;-79
2023/09/14 07:43:04;;;;;;;5.13;3.20;;;;;;;;;;4955824;28;20209;-79
2023/09/14 07:45:30;;;;;;;4.83;2.60;;;;;;;;;;4954898;28;20201;-79
2023/09/14 07:47:56;;;;;;;4.33;2.90;;;;;;;;;;4938315;29;20217;-78
2023/09/14 07:50:22;;;;;;;4.87;2.87;;;;;;;;;;4958931;28;20189;-79
2023/09/14 07:52:49;;;;;;;5.73;2.67;;;;;;;;;;4958101;28;20192;-79
2023/09/14 07:55:15;;;;;;;7.57;3.07;;;;;;;;;;4960722;28;20587;-78
2023/09/14 07:57:41;;;;;;;5.13;2.47;;;;;;;;;;4949400;28;20211;-79
2023/09/14 08:00:07;;;;;;;4.33;2.93;;;;;;;;;;4952419;28;20264;-79
2023/09/14 08:02:38;;;;;;;4.13;2.73;;;;;;;;;;4957883;28;20189;-79
2023/09/14 08:05:04;;;;;;;5.03;2.80;;;;;;;;;;4959440;28;20216;-78
2023/09/14 08:07:30;;;;;;;5.17;2.87;;;;;;;;;;4958405;28;20708;-78
2023/09/14 08:09:56;;;;;;;4.17;2.80;;;;;;;;;;4955125;28;20236;-79
2023/09/14 08:12:22;;;;;;;6.93;2.77;;;;;;;;;;4958326;28;20610;-79
2023/09/14 08:14:48;;;;;;;3.80;2.40;;;;;;;;;;4958520;28;20185;-78
2023/09/14 08:17:14;;;;;;;4.93;2.77;;;;;;;;;;4956577;28;20217;-79
2023/09/14 08:19:41;;;;;;;3.43;2.70;;;;;;;;;;4983777;28;20193;-79
2023/09/14 08:22:07;;;;;;;4.63;2.80;;;;;;;;;;4963570;28;20280;-79
2023/09/14 08:24:33;;;;;;;6.27;2.80;;;;;;;;;;4976813;28;20188;-79
2023/09/14 08:26:59;;;;;;;5.10;2.60;;;;;;;;;;4959229;28;20205;-78
2023/09/14 08:29:26;;;;;;;4.90;2.50;;;;;;;;;;4970212;28;20668;-79
2023/09/14 08:31:52;;;;;;;3.93;2.37;;;;;;;;;;4954528;28;20193;-78
2023/09/14 08:34:18;;;;;;;5.77;2.57;;;;;;;;;;4961030;28;20324;-79
2023/09/14 08:36:44;;;;;;;4.10;2.60;;;;;;;;;;4960425;28;20215;-79
2023/09/14 08:39:10;;;;;;;4.03;2.43;;;;;;;;;;4958664;28;20193;-79
2023/09/14 08:41:37;;;;;;;4.10;2.40;;;;;;;;;;4961687;28;20783;-79
2023/09/14 08:44:06;;;;;;;5.57;3.00;;;;;;;;;;4963084;28;20181;-79
2023/09/14 08:46:33;;;;;;;3.87;2.33;;;;;;;;;;4958609;28;20201;-79
2023/09/14 08:49:00;;;;;;;5.20;2.53;;;;;;;;;;4957559;28;20186;-78
2023/09/14 08:51:28;;;;;;;3.83;2.50;;;;;;;;;;4962945;28;20195;-79
2023/09/14 08:53:55;;;;;;;5.57;2.53;;;;;;;;;;4955262;28;20189;-78
2023/09/14 08:56:22;;;;;;;4.80;2.53;;;;;;;;;;4961060;28;20855;-79
2023/09/14 08:58:48;;;;;;;3.10;2.30;;;;;;;;;;4970132;28;20267;-78
2023/09/14 09:01:19;;;;;;;3.50;2.60;;;;;;;;;;4956779;28;20245;-78
2023/09/14 09:03:45;;;;;;;3.77;2.60;;;;;;;;;;4962942;28;20227;-78
2023/09/14 09:06:11;;;;;;;5.47;2.57;;;;;;;;;;4959645;28;20550;-79
2023/09/14 09:08:38;;;;;;;4.97;2.43;;;;;;;;;;4961067;28;20182;-79
2023/09/14 09:11:04;;;;;;;4.53;2.37;;;;;;;;;;4963974;28;20185;-80
2023/09/14 09:13:43;;;;;;;2.67;2.27;;;;;;;;;;4958294;28;20220;-78
2023/09/14 09:16:11;;;;;;;5.57;2.43;;;;;;;;;;4951658;28;20269;-79
2023/09/14 09:18:57;;;;;;;4.50;2.50;;;;;;;;;;4963893;28;20205;-79
2023/09/14 09:21:28;;;;;;;4.43;2.67;;;;;;;;;;4972509;28;20212;-79
2023/09/14 09:23:54;;;;;;;4.77;2.30;;;;;;;;;;4954749;28;20199;-78
2023/09/14 09:26:20;;;;;;;5.97;2.63;;;;;;;;;;4957292;28;20209;-79
2023/09/14 09:28:47;;;;;;;3.30;2.30;;;;;;;;;;4952997;29;20628;-79
2023/09/14 09:31:13;;;;;;;2.67;2.30;;;;;;;;;;4955848;28;20263;-79
2023/09/14 09:33:41;;;;;;;6.13;2.87;;;;;;;;;;4964383;28;20248;-78
2023/09/14 09:36:16;;;;;;;4.30;2.50;;;;;;;;;;4949518;28;20194;-79
2023/09/14 09:38:43;;;;;;;5.90;2.67;;;;;;;;;;4952545;28;20189;-79
2023/09/14 09:41:13;;;;;;;5.03;2.40;;;;;;;;;;4956654;28;20209;-79
2023/09/14 09:43:41;;;;;;;4.03;2.70;;;;;;;;;;4964495;28;20204;-79
2023/09/14 09:46:14;;;;;;;4.33;2.33;;;;;;;;;;4965067;28;20192;-78
2023/09/14 09:48:41;;;;;;;3.07;2.43;;;;;;;;;;4960926;28;20193;-79
2023/09/14 09:51:08;;;;;;;5.87;2.67;;;;;;;;;;4966893;28;20204;-79
2023/09/14 09:53:35;;;;;;;6.30;2.70;;;;;;;;;;4965996;28;20192;-78
2023/09/14 09:56:02;;;;;;;4.30;2.67;;;;;;;;;;4954381;28;20193;-78
2023/09/14 09:58:35;;;;;;;2.97;2.37;;;;;;;;;;4958082;28;20189;-79
2023/09/14 10:01:02;;;;;;;6.73;2.80;;;;;;;;;;4954689;28;20220;-78
2023/09/14 10:03:30;;;;;;;5.50;2.57;;;;;;;;;;4961396;28;20181;-79
2023/09/14 10:05:56;;;;;;;4.53;2.30;;;;;;;;;;4954718;28;20189;-78
2023/09/14 10:08:22;;;;;;;3.47;2.20;;;;;;;;;;4960191;28;20177;-78
2023/09/14 10:10:52;;;;;;;4.07;2.50;;;;;;;;;;4953869;28;20220;-78
2023/09/14 10:13:22;;;;;;;4.07;2.43;;;;;;;;;;4959915;28;20200;-78
2023/09/14 10:15:55;;;;;;;3.90;2.10;;;;;;;;;;4970720;28;20188;-79
2023/09/14 10:18:22;;;;;;;3.37;2.17;;;;;;;;;;4959967;28;20276;-78
2023/09/14 10:20:52;;;;;;;4.03;2.37;;;;;;;;;;4960638;28;20212;-78
2023/09/14 10:23:19;;;;;;;4.70;2.47;;;;;;;;;;4962247;28;20661;-79
2023/09/14 10:25:50;;;;;;;5.20;2.17;;;;;;;;;;4950677;28;20197;-79
2023/09/14 10:28:16;;;;;;;4.27;2.17;;;;;;;;;;4961360;28;20199;-78
2023/09/14 10:30:46;;;;;;;5.23;2.40;;;;;;;;;;4954370;28;20790;-79
2023/09/14 10:33:17;;;;;;;5.30;2.17;;;;;;;;;;4944897;29;20201;-78
2023/09/14 10:35:43;;;;;;;3.33;2.13;;;;;;;;;;4957364;28;20197;-79
2023/09/14 10:38:11;;;;;;;4.10;2.30;;;;;;;;;;4953735;28;20232;-79
2023/09/14 10:40:38;;;;;;;6.27;2.50;;;;;;;;;;4956294;28;20286;-79
2023/09/14 10:43:05;;;;;;;5.13;2.10;;;;;;;;;;4951243;28;20225;-79
2023/09/14 10:45:36;;;;;;;6.37;2.33;;;;;;;;;;4935899;29;20201;-78
2023/09/14 10:48:04;;;;;;;4.27;2.10;;;;;;;;;;4952829;29;20239;-79
2023/09/14 10:50:31;;;;;;;2.93;1.93;;;;;;;;;;4957293;28;20189;-79
2023/09/14 10:52:58;;;;;;;3.90;2.10;;;;;;;;;;4963340;28;20559;-79
2023/09/14 10:55:25;;;;;;;2.90;2.07;;;;;;;;;;4960713;28;20239;-78
2023/09/14 10:57:52;;;;;;;3.57;2.00;;;;;;;;;;4954013;28;20205;-78
2023/09/14 11:00:33;;;;;;;2.70;1.87;;;;;;;;;;4955882;28;20564;-78
2023/09/14 11:03:00;;;;;;;4.33;2.37;;;;;;;;;;4972266;28;20209;-79
2023/09/14 11:05:27;;;;;;;2.60;1.83;;;;;;;;;;4953895;28;20665;-80
2023/09/14 11:07:55;;;;;;;3.57;2.00;;;;;;;;;;4957041;28;20201;-79
2023/09/14 11:10:22;;;;;;;4.73;1.90;;;;;;;;;;4967511;28;20676;-79
2023/09/14 11:12:49;;;;;;;5.47;2.00;;;;;;;;;;4959506;28;20197;-79
2023/09/14 11:15:22;;;;;;;2.40;2.20;;;;;;;;;;4958590;28;20190;-79
2023/09/14 11:17:51;;;;;;;3.23;2.00;;;;;;;;;;4954059;28;20220;-79
2023/09/14 11:20:20;;;;;;;3.20;1.93;;;;;;;;;;4953001;28;20195;-80
2023/09/14 11:22:50;;;;;;;4.33;2.40;;;;;;;;;;4968364;28;20189;-79
2023/09/14 11:25:26;;;;;;;4.43;2.00;;;;;;;;;;4983484;28;20262;-79
2023/09/14 11:27:52;;;;;;;3.27;2.00;;;;;;;;;;4961826;28;20215;-79
2023/09/14 11:30:20;;;;;;;2.20;1.70;;;;;;;;;;4964226;28;20186;-79
2023/09/14 11:32:47;;;;;;;2.70;2.10;;;;;;;;;;4959842;28;20212;-79
2023/09/14 11:35:14;;;;;;;3.23;2.00;;;;;;;;;;4956336;28;20314;-79
2023/09/14 11:37:40;;;;;;;2.93;2.00;;;;;;;;;;4952543;29;20236;-79
2023/09/14 11:40:11;;;;;;;4.23;1.93;;;;;;;;;;4961517;28;20201;-79
2023/09/14 11:42:56;;;;;;;3.90;2.03;;;;;;;;;;4960800;28;20236;-79
2023/09/14 11:45:22;;;;;;;4.67;1.80;;;;;;;;;;4956391;28;20185;-79
2023/09/14 11:47:48;;;;;;;3.47;1.83;;;;;;;;;;4954345;28;20673;-79
2023/09/14 11:50:15;;;;;;;3.37;1.80;;;;;;;;;;4962384;28;20185;-79
2023/09/14 11:52:41;;;;;;;2.13;1.80;;;;;;;;;;4963365;28;20276;-79
2023/09/14 11:55:08;;;;;;;3.57;2.10;;;;;;;;;;4963229;28;20264;-79
2023/09/14 11:57:35;;;;;;;4.20;1.90;;;;;;;;;;4960806;28;20237;-79
2023/09/14 12:00:01;;;;;;;3.67;1.93;;;;;;;;;;4965757;28;20197;-79
2023/09/14 12:02:27;;;;;;;3.07;2.10;;;;;;;;;;4987388;28;20208;-79
2023/09/14 12:04:54;;;;;;;3.10;1.90;;;;;;;;;;4956235;28;20234;-79
2023/09/14 12:07:21;;;;;;;4.07;1.80;;;;;;;;;;4976844;28;20239;-79
2023/09/14 12:09:47;;;;;;;3.17;1.70;;;;;;;;;;4961452;28;20189;-79
2023/09/14 12:12:26;;;;;;;3.23;1.80;;;;;;;;;;4959154;28;20205;-79
2023/09/14 12:14:52;;;;;;;3.23;1.90;;;;;;;;;;4956783;28;20610;-79
2023/09/14 12:17:19;;;;;;;2.90;1.77;;;;;;;;;;4962410;28;20215;-79
2023/09/14 12:19:46;;;;;;;2.80;1.80;;;;;;;;;;4961192;28;20730;-80
2023/09/14 12:22:14;;;;;;;3.97;1.77;;;;;;;;;;4967794;28;20218;-79
2023/09/14 12:24:41;;;;;;;3.03;1.60;;;;;;;;;;4953167;28;20196;-79
2023/09/14 12:27:07;;;;;;;3.50;1.90;;;;;;;;;;4961330;28;20201;-80
2023/09/14 12:29:33;;;;;;;2.17;1.60;;;;;;;;;;4967162;28;20191;-79
2023/09/14 12:31:59;;;;;;;2.23;1.60;;;;;;;;;;4955461;29;20194;-80
2023/09/14 12:34:25;;;;;;;5.20;1.83;;;;;;;;;;4958263;28;20194;-80
2023/09/14 12:36:52;;;;;;;4.53;1.97;;;;;;;;;;4966355;28;20211;-80
2023/09/14 12:39:18;;;;;;;4.27;1.83;;;;;;;;;;4963813;28;20193;-80
2023/09/14 12:41:44;;;;;;;2.20;1.70;;;;;;;;;;4969152;28;20220;-80
2023/09/14 12:44:10;;;;;;;3.57;1.50;;;;;;;;;;4971667;28;20181;-80
2023/09/14 12:46:37;;;;;;;3.67;1.97;;;;;;;;;;4967798;28;20208;-79
2023/09/14 12:49:04;;;;;;;4.60;1.90;;;;;;;;;;4961093;28;20189;-79
2023/09/14 12:51:32;;;;;;;2.17;1.30;;;;;;;;;;4964075;28;20190;-79
2023/09/14 12:53:59;;;;;;;2.70;1.50;;;;;;;;;;4961962;28;20274;-79
2023/09/14 12:56:25;;;;;;;3.03;1.70;;;;;;;;;;4965516;28;20233;-80
2023/09/14 12:58:51;;;;;;;1.60;1.50;;;;;;;;;;4965772;28;20191;-80
2023/09/14 13:01:18;;;;;;;3.87;1.70;;;;;;;;;;4962871;28;21001;-79
2023/09/14 13:03:44;;;;;;;2.40;1.60;;;;;;;;;;4958086;28;20196;-80
2023/09/14 13:06:10;;;;;;;2.30;1.53;;;;;;;;;;4973269;28;20568;-80
2023/09/14 13:08:42;;;;;;;2.40;1.70;;;;;;;;;;4962405;28;20186;-79
2023/09/14 13:11:20;;;;;;;2.17;1.77;;;;;;;;;;4952520;28;20192;-80
2023/09/14 13:13:46;;;;;;;3.83;1.60;;;;;;;;;;4952325;28;20278;-81
2023/09/14 13:16:16;;;;;;;2.33;1.60;;;;;;;;;;4966279;28;20247;-80
2023/09/14 13:18:42;;;;;;;2.10;1.80;;;;;;;;;;4973465;28;20203;-80
2023/09/14 13:21:08;;;;;;;1.73;1.60;;;;;;;;;;4948421;28;20215;-80
2023/09/14 13:23:35;;;;;;;2.07;1.67;;;;;;;;;;4965336;28;20189;-80
2023/09/14 13:26:01;;;;;;;3.63;1.60;;;;;;;;;;4957909;28;20190;-80
2023/09/14 13:28:28;;;;;;;3.00;1.50;;;;;;;;;;4988799;28;20189;-79
2023/09/14 13:30:54;;;;;;;2.67;1.60;;;;;;;;;;4962064;28;20282;-79
2023/09/14 13:33:20;;;;;;;2.17;1.50;;;;;;;;;;4951671;28;20198;-79
2023/09/14 13:35:49;;;;;;;2.27;1.53;;;;;;;;;;4969438;28;20198;-80
2023/09/14 13:38:15;;;;;;;2.83;1.70;;;;;;;;;;4965060;28;20215;-80
2023/09/14 13:40:41;;;;;;;2.13;1.60;;;;;;;;;;4969331;28;20214;-79
2023/09/14 13:43:08;;;;;;;2.07;1.60;;;;;;;;;;4959055;28;20230;-80
2023/09/14 13:45:35;;;;;;;2.17;1.60;;;;;;;;;;4963709;28;20669;-82
2023/09/14 13:48:02;;;;;;;2.60;1.60;;;;;;;;;;4970909;28;20210;-80
2023/09/14 13:50:29;;;;;;;4.00;1.57;;;;;;;;;;4959966;28;20205;-80
2023/09/14 13:52:55;;;;;;;2.67;1.60;;;;;;;;;;4959382;28;20618;-79
2023/09/14 13:55:21;;;;;;;2.27;1.60;;;;;;;;;;4957738;28;20262;-79
2023/09/14 13:57:47;;;;;;;2.13;1.63;;;;;;;;;;4965110;28;20211;-80
2023/09/14 14:00:14;;;;;;;2.40;1.60;;;;;;;;;;4965174;28;20264;-80
2023/09/14 14:02:41;;;;;;;4.43;1.70;;;;;;;;;;4958391;28;20198;-79
2023/09/14 14:05:08;;;;;;;2.90;1.70;;;;;;;;;;4960402;28;20573;-79
2023/09/14 14:07:34;;;;;;;1.90;1.70;;;;;;;;;;4968383;28;20211;-79
2023/09/14 14:10:01;;;;;;;3.17;1.60;;;;;;;;;;4966279;28;20196;-79
2023/09/14 14:12:28;;;;;;;1.60;1.40;;;;;;;;;;4968024;28;20188;-80
2023/09/14 14:14:56;;;;;;;2.40;1.60;;;;;;;;;;4968013;28;20275;-80
2023/09/14 14:17:25;;;;;;;2.13;1.40;;;;;;;;;;4961045;28;20220;-79
2023/09/14 14:19:51;;;;;;;2.00;1.30;;;;;;;;;;4961969;28;20291;-80
2023/09/14 14:22:17;;;;;;;2.70;1.87;;;;;;;;;;4959026;28;20212;-80
2023/09/14 14:24:44;;;;;;;2.43;1.60;;;;;;;;;;4963479;28;20266;-79
2023/09/14 14:27:14;;;;;;;2.50;1.40;;;;;;;;;;4963253;28;20262;-80
2023/09/14 14:29:40;;;;;;;2.50;1.70;;;;;;;;;;4964009;28;20197;-80
2023/09/14 14:32:06;;;;;;;2.27;1.63;;;;;;;;;;4967082;28;20235;-80
2023/09/14 14:34:32;;;;;;;2.43;1.60;;;;;;;;;;4968308;28;20199;-80
2023/09/14 14:36:58;;;;;;;3.07;1.57;;;;;;;;;;4960301;28;20258;-79
2023/09/14 14:39:24;;;;;;;2.37;1.57;;;;;;;;;;4963962;28;20655;-80
2023/09/14 14:41:50;;;;;;;2.70;1.63;;;;;;;;;;4964940;28;20217;-79
2023/09/14 14:44:17;;;;;;;1.60;1.30;;;;;;;;;;4966660;28;20230;-80